createdAt,value
2023-01-03T00:00:24.917Z,100723.44
2023-01-03T00:02:51.992Z,100722.84
2023-01-03T00:05:19.066Z,100723.09
2023-01-03T00:07:46.019Z,100720.63
2023-01-03T00:10:13.040Z,100729.50
2023-01-03T00:12:40.120Z,100732.34
2023-01-03T00:15:07.717Z,100741.31
2023-01-03T00:17:35.379Z,100741.31
2023-01-03T00:20:03.631Z,100742.72
2023-01-03T00:22:32.330Z,100747.13
2023-01-03T00:24:59.540Z,100742.94
2023-01-03T00:27:29.388Z,100749.47
2023-01-03T00:29:56.719Z,100745.41
2023-01-03T00:32:23.734Z,100755.78
2023-01-03T00:34:50.770Z,100743.34
2023-01-03T00:37:17.908Z,100748.25
2023-01-03T00:39:45.017Z,100747.19
2023-01-03T00:42:12.098Z,100732.16
2023-01-03T00:44:39.362Z,100741.78
2023-01-03T00:47:06.570Z,100736.13
2023-01-03T00:49:33.716Z,100734.03
2023-01-03T00:52:00.945Z,100740.69
2023-01-03T00:54:28.003Z,100734.16
2023-01-03T00:56:55.064Z,100740.09
2023-01-03T00:59:22.443Z,100737.97
2023-01-03T01:01:52.910Z,100743.03
2023-01-03T01:04:30.416Z,100746.50
2023-01-03T01:07:00.483Z,100743.25
2023-01-03T01:09:30.608Z,100749.94
2023-01-03T01:11:58.404Z,100755.34
2023-01-03T01:14:28.294Z,100763.47
2023-01-03T01:16:57.850Z,100766.03
2023-01-03T01:19:40.078Z,100764.06
2023-01-03T01:22:07.797Z,100762.94
2023-01-03T01:24:35.355Z,100779.41
2023-01-03T01:27:02.483Z,100784.94
2023-01-03T01:29:31.705Z,100796.25
2023-01-03T01:31:58.755Z,100791.41
2023-01-03T01:34:25.748Z,100802.72
2023-01-03T01:36:52.868Z,100806.53
2023-01-03T01:39:22.995Z,100810.94
2023-01-03T01:41:53.776Z,100821.66
2023-01-03T01:44:45.929Z,100822.00
2023-01-03T01:47:23.447Z,100830.75
2023-01-03T01:49:56.602Z,100825.34
2023-01-03T01:52:25.364Z,100830.97
2023-01-03T01:54:54.220Z,100836.78
2023-01-03T01:57:25.412Z,100836.78
2023-01-03T01:59:52.456Z,100832.34
2023-01-03T02:02:21.692Z,100837.16
2023-01-03T02:04:52.929Z,100835.19
2023-01-03T02:07:22.663Z,100843.84
2023-01-03T02:09:53.029Z,100839.16
2023-01-03T02:12:37.558Z,100832.41
2023-01-03T02:15:25.000Z,100840.19
2023-01-03T02:18:13.984Z,100845.22
2023-01-03T02:20:59.586Z,100850.19
2023-01-03T02:23:48.401Z,100843.56
2023-01-03T02:26:33.301Z,100846.97
2023-01-03T02:29:00.244Z,100846.25
2023-01-03T02:31:47.593Z,100848.69
2023-01-03T02:34:43.131Z,100852.16
2023-01-03T02:37:31.082Z,100854.75
2023-01-03T02:40:13.974Z,100850.06
2023-01-03T02:42:56.234Z,100855.97
2023-01-03T02:45:43.499Z,100851.31
2023-01-03T02:48:15.665Z,100841.59
2023-01-03T02:50:49.467Z,100840.84
2023-01-03T02:53:25.604Z,100837.41
2023-01-03T02:56:01.190Z,100844.16
2023-01-03T02:58:31.926Z,100844.28
2023-01-03T03:01:00.449Z,100834.19
2023-01-03T03:03:32.701Z,100835.50
2023-01-03T03:06:23.400Z,100847.44
2023-01-03T03:08:50.648Z,100849.97
2023-01-03T03:11:18.386Z,100847.50
2023-01-03T03:13:50.886Z,100854.28
2023-01-03T03:16:25.891Z,100843.91
2023-01-03T03:19:01.334Z,100846.72
2023-01-03T03:21:36.738Z,100849.16
2023-01-03T03:24:18.780Z,100844.56
2023-01-03T03:26:48.064Z,100850.66
2023-01-03T03:29:18.714Z,100855.34
2023-01-03T03:31:50.242Z,100848.19
2023-01-03T03:34:30.978Z,100859.47
2023-01-03T03:37:16.339Z,100852.56
2023-01-03T03:39:45.945Z,100848.34
2023-01-03T03:42:28.603Z,100856.56
2023-01-03T03:45:02.188Z,100852.16
2023-01-03T03:48:01.350Z,100854.34
2023-01-03T03:50:46.655Z,100863.88
2023-01-03T03:53:16.142Z,100861.28
2023-01-03T03:56:01.565Z,100866.38
2023-01-03T03:58:40.002Z,100870.63
2023-01-03T04:01:09.667Z,100869.84
2023-01-03T04:03:39.142Z,100883.72
2023-01-03T04:06:10.694Z,100880.34
2023-01-03T04:08:37.748Z,100879.72
2023-01-03T04:11:05.340Z,100891.41
2023-01-03T04:13:37.953Z,100895.28
2023-01-03T04:16:06.486Z,100890.00
2023-01-03T04:18:34.252Z,100901.88
2023-01-03T04:21:01.285Z,100898.31
2023-01-03T04:23:28.356Z,100900.13
2023-01-03T04:25:55.521Z,100910.09
2023-01-03T04:28:22.541Z,100906.50
2023-01-03T04:30:49.599Z,100905.63
2023-01-03T04:33:16.701Z,100907.38
2023-01-03T04:35:43.712Z,100903.59
2023-01-03T04:38:10.933Z,100909.00
2023-01-03T04:40:38.268Z,100909.09
2023-01-03T04:43:05.591Z,100909.63
2023-01-03T04:45:32.716Z,100906.31
2023-01-03T04:48:00.437Z,100905.00
2023-01-03T04:50:27.530Z,100901.31
2023-01-03T04:52:54.527Z,100901.75
2023-01-03T04:55:21.890Z,100902.50
2023-01-03T04:57:49.348Z,100900.03
2023-01-03T05:00:16.843Z,100895.94
2023-01-03T05:02:43.859Z,100896.91
2023-01-03T05:05:11.011Z,100902.50
2023-01-03T05:07:38.169Z,100909.72
2023-01-03T05:10:05.581Z,100903.59
2023-01-03T05:12:33.700Z,100898.28
2023-01-03T05:15:00.697Z,100905.19
2023-01-03T05:17:27.672Z,100892.69
2023-01-03T05:19:54.715Z,100898.09
2023-01-03T05:22:21.746Z,100894.41
2023-01-03T05:24:48.764Z,100892.69
2023-01-03T05:27:15.989Z,100904.53
2023-01-03T05:29:43.062Z,100908.88
2023-01-03T05:32:10.158Z,100916.53
2023-01-03T05:34:37.198Z,100911.56
2023-01-03T05:37:04.225Z,100916.44
2023-01-03T05:39:31.190Z,100915.13
2023-01-03T05:41:58.246Z,100920.13
2023-01-03T05:44:26.579Z,100929.63
2023-01-03T05:46:53.654Z,100936.31
2023-01-03T05:49:20.672Z,100938.50
2023-01-03T05:51:47.722Z,100935.44
2023-01-03T05:54:16.262Z,100944.09
2023-01-03T05:56:43.331Z,100936.53
2023-01-03T05:59:10.848Z,100942.69
2023-01-03T06:01:38.300Z,100946.78
2023-01-03T06:04:06.331Z,100950.47
2023-01-03T06:06:33.403Z,100945.91
2023-01-03T06:09:00.460Z,100947.66
2023-01-03T06:11:27.766Z,100949.28
2023-01-03T06:13:54.857Z,100944.63
2023-01-03T06:16:24.870Z,100953.13
2023-01-03T06:18:52.236Z,100947.41
2023-01-03T06:21:19.460Z,100950.84
2023-01-03T06:23:46.514Z,100950.53
2023-01-03T06:26:14.906Z,100947.63
2023-01-03T06:28:42.235Z,100953.88
2023-01-03T06:31:09.468Z,100951.94
2023-01-03T06:33:36.998Z,100965.19
2023-01-03T06:36:07.499Z,100964.25
2023-01-03T06:38:34.889Z,100958.84
2023-01-03T06:41:01.964Z,100964.25
2023-01-03T06:43:29.290Z,100963.28
2023-01-03T06:45:58.433Z,100966.09
2023-01-03T06:48:27.986Z,100965.00
2023-01-03T06:50:55.516Z,100965.19
2023-01-03T06:53:23.714Z,100973.31
2023-01-03T06:55:56.931Z,100966.28
2023-01-03T06:58:24.938Z,100967.06
2023-01-03T07:00:52.730Z,100959.06
2023-01-03T07:03:19.809Z,100962.84
2023-01-03T07:05:46.941Z,100971.28
2023-01-03T07:08:14.159Z,100976.91
2023-01-03T07:10:41.540Z,100973.78
2023-01-03T07:13:08.607Z,100971.22
2023-01-03T07:15:45.021Z,100978.53
2023-01-03T07:18:12.228Z,100988.47
2023-01-03T07:20:43.319Z,100987.84
2023-01-03T07:23:11.759Z,100995.19
2023-01-03T07:25:39.358Z,100986.66
2023-01-03T07:28:11.196Z,100993.13
2023-01-03T07:30:40.291Z,100992.28
2023-01-03T07:33:09.637Z,100998.53
2023-01-03T07:35:37.360Z,100997.56
2023-01-03T07:38:05.711Z,101008.28
2023-01-03T07:40:32.952Z,101014.97
2023-01-03T07:43:00.145Z,101020.16
2023-01-03T07:45:27.286Z,101026.19
2023-01-03T07:47:54.536Z,101027.94
2023-01-03T07:50:21.569Z,101034.88
2023-01-03T07:52:48.807Z,101036.47
2023-01-03T07:55:15.946Z,101047.81
2023-01-03T07:57:42.995Z,101051.94
2023-01-03T08:00:10.805Z,101057.00
2023-01-03T08:02:39.550Z,101054.81
2023-01-03T08:05:07.071Z,101060.69
2023-01-03T08:07:36.239Z,101070.16
2023-01-03T08:10:04.383Z,101069.75
2023-01-03T08:12:31.471Z,101069.63
2023-01-03T08:14:58.719Z,101068.44
2023-01-03T08:17:25.801Z,101079.69
2023-01-03T08:19:53.031Z,101070.38
2023-01-03T08:22:20.206Z,101079.00
2023-01-03T08:24:47.310Z,101079.53
2023-01-03T08:27:14.392Z,101077.34
2023-01-03T08:29:42.552Z,101085.13
2023-01-03T08:32:10.132Z,101081.97
2023-01-03T08:34:39.029Z,101087.69
2023-01-03T08:37:08.116Z,101089.84
2023-01-03T08:39:42.282Z,101091.09
2023-01-03T08:42:16.106Z,101094.75
2023-01-03T08:44:45.485Z,101089.38
2023-01-03T08:47:14.304Z,101088.66
2023-01-03T08:49:42.388Z,101096.13
2023-01-03T08:52:09.559Z,101100.84
2023-01-03T08:54:37.166Z,101097.75
2023-01-03T08:57:07.460Z,101094.72
2023-01-03T08:59:34.630Z,101089.44
2023-01-03T09:02:02.449Z,101089.94
2023-01-03T09:04:29.860Z,101080.63
2023-01-03T09:06:56.928Z,101081.50
2023-01-03T09:09:24.076Z,101089.19
2023-01-03T09:11:51.227Z,101090.28
2023-01-03T09:14:18.381Z,101091.66
2023-01-03T09:16:49.030Z,101096.34
2023-01-03T09:19:17.246Z,101099.53
2023-01-03T09:21:44.368Z,101092.28
2023-01-03T09:24:11.620Z,101096.63
2023-01-03T09:26:38.976Z,101086.13
2023-01-03T09:29:06.267Z,101087.69
2023-01-03T09:31:33.332Z,101078.81
2023-01-03T09:34:01.266Z,101081.00
2023-01-03T09:36:31.825Z,101081.13
2023-01-03T09:38:58.879Z,101081.97
2023-01-03T09:41:28.574Z,101084.44
2023-01-03T09:44:05.549Z,101091.09
2023-01-03T09:46:34.152Z,101079.22
2023-01-03T09:49:02.743Z,101087.00
2023-01-03T09:51:40.186Z,101089.31
2023-01-03T09:54:17.501Z,101082.28
2023-01-03T09:56:44.577Z,101085.47
2023-01-03T09:59:16.498Z,101079.28
2023-01-03T10:02:21.932Z,101073.56
2023-01-03T10:05:20.021Z,101076.38
2023-01-03T10:08:31.831Z,101077.59
2023-01-03T10:11:20.315Z,101084.06
2023-01-03T10:14:16.162Z,101079.59
2023-01-03T10:16:59.681Z,101075.88
2023-01-03T10:19:56.824Z,101077.88
2023-01-03T10:22:30.139Z,101073.59
2023-01-03T10:25:13.160Z,101082.91
2023-01-03T10:27:52.593Z,101068.91
2023-01-03T10:30:33.534Z,101069.94
2023-01-03T10:33:10.298Z,101065.16
2023-01-03T10:35:42.617Z,101056.88
2023-01-03T10:38:09.980Z,101047.19
2023-01-03T10:40:43.905Z,101048.63
2023-01-03T10:43:25.892Z,101048.38
2023-01-03T10:46:14.105Z,101050.03
2023-01-03T10:51:50.586Z,101051.06
2023-01-03T10:54:48.291Z,101039.72
2023-01-03T10:58:24.027Z,101036.31
2023-01-03T11:00:43.777Z,101032.75
2023-01-03T11:03:19.919Z,101030.47
2023-01-03T11:06:10.022Z,101031.16
2023-01-03T11:08:37.573Z,101027.88
2023-01-03T11:11:27.910Z,101029.28
2023-01-03T11:14:26.309Z,101034.03
2023-01-03T11:17:06.006Z,101029.88
2023-01-03T11:19:34.619Z,101038.38
2023-01-03T11:22:12.283Z,101038.22
2023-01-03T11:25:11.595Z,101038.50
2023-01-03T11:28:15.698Z,101035.84
2023-01-03T11:30:59.173Z,101033.28
2023-01-03T11:33:31.928Z,101034.56
2023-01-03T11:36:24.752Z,101037.56
2023-01-03T11:39:29.539Z,101028.25
2023-01-03T11:42:30.424Z,101037.84
2023-01-03T11:45:06.953Z,101030.97
2023-01-03T11:47:57.910Z,101034.09
2023-01-03T11:51:03.054Z,101036.81
2023-01-03T11:53:38.446Z,101026.75
2023-01-03T11:56:11.711Z,101029.38
2023-01-03T11:58:38.826Z,101012.88
2023-01-03T12:01:27.781Z,101021.59
2023-01-03T12:04:16.633Z,101016.41
2023-01-03T12:07:45.736Z,101020.44
2023-01-03T12:09:54.901Z,101015.75
2023-01-03T12:12:29.684Z,101016.88
2023-01-03T12:15:17.367Z,101012.31
2023-01-03T12:17:46.718Z,101015.78
2023-01-03T12:20:36.488Z,101006.63
2023-01-03T12:23:34.187Z,101005.16
2023-01-03T12:26:06.411Z,101001.44
2023-01-03T12:28:38.357Z,100998.88
2023-01-03T12:31:32.600Z,100994.84
2023-01-03T12:34:14.014Z,100981.38
2023-01-03T12:36:43.273Z,100985.84
2023-01-03T12:39:24.887Z,100986.81
2023-01-03T12:42:20.085Z,100981.97
2023-01-03T12:44:56.717Z,100980.69
2023-01-03T12:47:41.016Z,100970.94
2023-01-03T12:50:25.721Z,100978.09
2023-01-03T12:53:03.770Z,100967.59
2023-01-03T12:55:43.019Z,100970.50
2023-01-03T12:58:26.286Z,100966.75
2023-01-03T13:01:23.470Z,100971.06
2023-01-03T13:04:23.061Z,100977.50
2023-01-03T13:07:05.820Z,100978.06
2023-01-03T13:09:40.123Z,100958.84
2023-01-03T13:12:19.469Z,100965.19
2023-01-03T13:15:01.843Z,100975.94
2023-01-03T13:17:33.749Z,100967.19
2023-01-03T13:20:42.429Z,100973.34
2023-01-03T13:23:40.702Z,100970.63
2023-01-03T13:26:25.594Z,100969.72
2023-01-03T13:29:13.089Z,100965.69
2023-01-03T13:31:42.732Z,100964.53
2023-01-03T13:34:18.050Z,100972.41
2023-01-03T13:37:06.811Z,100971.59
2023-01-03T13:39:50.891Z,100972.56
2023-01-03T13:42:28.380Z,100972.69
2023-01-03T13:45:15.451Z,100971.59
2023-01-03T13:47:54.578Z,100968.69
2023-01-03T13:50:25.761Z,100974.56
2023-01-03T13:53:09.529Z,100980.88
2023-01-03T13:55:41.525Z,100980.56
2023-01-03T13:58:42.472Z,100981.56
2023-01-03T14:01:40.592Z,100980.13
2023-01-03T14:04:34.015Z,100975.94
2023-01-03T14:07:24.136Z,100966.25
2023-01-03T14:10:09.304Z,100981.00
2023-01-03T14:13:10.362Z,100983.25
2023-01-03T14:15:37.454Z,100989.97
2023-01-03T14:18:18.107Z,100985.94
2023-01-03T14:20:52.803Z,100982.78
2023-01-03T14:26:15.567Z,100987.19
2023-01-03T14:28:47.385Z,100978.78
2023-01-03T14:31:17.475Z,100984.47
2023-01-03T14:33:52.427Z,100986.19
2023-01-03T14:36:19.460Z,100977.31
2023-01-03T14:38:49.847Z,100974.88
2023-01-03T14:41:38.031Z,100981.31
2023-01-03T14:44:14.366Z,100985.31
2023-01-03T14:46:50.743Z,100986.75
2023-01-03T14:49:26.377Z,100987.47
2023-01-03T14:52:06.894Z,100982.28
2023-01-03T14:54:35.735Z,100978.72
2023-01-03T14:57:02.989Z,100983.44
2023-01-03T14:59:31.394Z,100979.69
2023-01-03T15:01:58.903Z,100977.94
2023-01-03T15:04:26.461Z,100978.09
2023-01-03T15:07:04.776Z,100987.09
2023-01-03T15:09:36.720Z,100984.50
2023-01-03T15:12:05.023Z,100983.69
2023-01-03T15:14:35.180Z,100993.09
2023-01-03T15:17:14.047Z,100994.81
2023-01-03T15:19:49.724Z,100996.94
2023-01-03T15:22:22.228Z,100997.22
2023-01-03T15:25:04.909Z,101006.75
2023-01-03T15:27:41.095Z,101003.34
2023-01-03T15:30:15.780Z,101006.00
2023-01-03T15:32:49.021Z,101005.53
2023-01-03T15:35:29.489Z,101002.41
2023-01-03T15:37:57.124Z,100995.38
2023-01-03T15:40:24.428Z,100998.50
2023-01-03T15:42:58.337Z,101003.59
2023-01-03T15:45:28.527Z,100999.28
2023-01-03T15:47:59.415Z,101009.56
2023-01-03T15:50:39.680Z,101012.28
2023-01-03T15:53:15.720Z,101011.53
2023-01-03T15:55:42.958Z,101010.19
2023-01-03T15:58:09.969Z,101006.63
2023-01-03T16:00:37.072Z,101009.19
2023-01-03T16:03:04.560Z,101006.41
2023-01-03T16:05:31.718Z,101003.94
2023-01-03T16:07:59.913Z,101013.47
2023-01-03T16:10:28.897Z,101017.19
2023-01-03T16:12:55.913Z,101013.72
2023-01-03T16:15:26.128Z,101006.81
2023-01-03T16:17:53.341Z,101002.63
2023-01-03T16:20:20.436Z,101001.31
2023-01-03T16:22:59.495Z,101012.78
2023-01-03T16:25:28.147Z,101011.78
2023-01-03T16:27:55.225Z,101018.22
2023-01-03T16:30:22.300Z,101022.16
2023-01-03T16:32:49.887Z,101014.03
2023-01-03T16:35:19.381Z,101009.59
2023-01-03T16:37:46.710Z,101007.00
2023-01-03T16:40:19.646Z,101006.25
2023-01-03T16:42:49.479Z,101005.78
2023-01-03T16:45:16.605Z,101012.31
2023-01-03T16:47:44.126Z,101014.31
2023-01-03T16:50:17.342Z,101012.69
2023-01-03T16:52:47.757Z,101005.56
2023-01-03T16:55:21.728Z,101007.31
2023-01-03T16:57:53.886Z,100997.94
2023-01-03T17:00:33.894Z,101001.13
2023-01-03T17:03:01.833Z,101006.31
2023-01-03T17:05:32.871Z,100999.34
2023-01-03T17:08:04.692Z,101006.22
2023-01-03T17:10:37.099Z,101003.16
2023-01-03T17:13:12.081Z,101005.63
2023-01-03T17:15:41.524Z,101003.25
2023-01-03T17:18:18.783Z,100999.06
2023-01-03T17:20:51.449Z,101004.38
2023-01-03T17:23:18.651Z,100998.78
2023-01-03T17:25:45.675Z,101004.78
2023-01-03T17:28:12.764Z,101014.16
2023-01-03T17:30:40.141Z,101005.03
2023-01-03T17:33:07.205Z,101005.50
2023-01-03T17:35:36.272Z,101004.13
2023-01-03T17:38:25.260Z,101002.38
2023-01-03T17:40:51.556Z,101000.59
2023-01-03T17:43:23.303Z,100999.72
2023-01-03T17:45:54.068Z,101000.09
2023-01-03T17:48:21.269Z,100996.06
2023-01-03T17:50:48.741Z,101000.84
2023-01-03T17:53:20.187Z,101004.41
2023-01-03T17:55:47.664Z,101000.38
2023-01-03T17:58:24.457Z,101004.59
2023-01-03T18:00:51.463Z,100995.97
2023-01-03T18:03:19.776Z,101005.69
2023-01-03T18:05:47.052Z,101002.53
2023-01-03T18:08:19.908Z,100998.72
2023-01-03T18:10:48.321Z,100997.50
2023-01-03T18:13:19.372Z,100994.53
2023-01-03T18:15:46.600Z,100997.88
2023-01-03T18:18:18.543Z,101004.69
2023-01-03T18:20:46.219Z,100995.56
2023-01-03T18:23:19.453Z,100999.00
2023-01-03T18:25:46.679Z,100998.28
2023-01-03T18:28:20.274Z,100998.03
2023-01-03T18:30:47.412Z,101006.50
2023-01-03T18:33:14.707Z,101009.97
2023-01-03T18:35:42.184Z,101009.34
2023-01-03T18:38:30.940Z,101013.03
2023-01-03T18:41:04.811Z,101009.44
2023-01-03T18:43:34.060Z,101011.66
2023-01-03T18:46:01.519Z,101007.25
2023-01-03T18:48:28.782Z,101013.88
2023-01-03T18:50:59.542Z,101010.41
2023-01-03T18:53:30.471Z,101015.09
2023-01-03T18:55:57.711Z,101008.56
2023-01-03T18:58:39.730Z,101014.22
2023-01-03T19:01:07.053Z,101015.09
2023-01-03T19:03:35.408Z,101023.56
2023-01-03T19:06:11.242Z,101011.34
2023-01-03T19:08:38.511Z,101016.97
2023-01-03T19:11:15.606Z,101016.78
2023-01-03T19:13:48.919Z,101020.97
2023-01-03T19:16:24.915Z,101020.56
2023-01-03T19:18:52.583Z,101019.00
2023-01-03T19:21:22.481Z,101018.81
2023-01-03T19:24:04.840Z,101009.00
2023-01-03T19:26:40.315Z,101018.78
2023-01-03T19:29:17.871Z,101011.25
2023-01-03T19:31:47.366Z,101002.63
2023-01-03T19:34:19.650Z,100993.31
2023-01-03T19:36:48.920Z,101008.38
2023-01-03T19:39:23.850Z,101001.13
2023-01-03T19:41:55.067Z,101007.84
2023-01-03T19:44:22.205Z,101001.78
2023-01-03T19:46:50.381Z,100992.28
2023-01-03T19:49:19.836Z,100997.25
2023-01-03T19:51:54.232Z,100998.53
2023-01-03T19:54:21.241Z,100997.78
2023-01-03T19:56:53.313Z,100998.94
2023-01-03T19:59:27.439Z,100994.63
2023-01-03T20:02:24.108Z,101003.41
2023-01-03T20:04:43.049Z,101002.97
2023-01-03T20:07:14.074Z,100996.91
2023-01-03T20:09:41.381Z,100996.06
2023-01-03T20:12:12.683Z,100999.84
2023-01-03T20:14:49.542Z,100996.34
2023-01-03T20:17:20.689Z,101004.75
2023-01-03T20:19:48.500Z,100997.63
2023-01-03T20:22:37.737Z,100997.09
2023-01-03T20:25:05.621Z,100995.47
2023-01-03T20:27:32.845Z,100996.84
2023-01-03T20:30:00.015Z,100996.84
2023-01-03T20:32:27.073Z,101003.53
2023-01-03T20:34:54.231Z,100997.78
2023-01-03T20:37:24.478Z,100995.59
2023-01-03T20:39:51.643Z,100984.91
2023-01-03T20:42:20.710Z,100985.00
2023-01-03T20:44:52.803Z,100991.50
2023-01-03T20:47:23.548Z,100983.81
2023-01-03T20:49:50.978Z,100981.50
2023-01-03T20:52:18.727Z,100982.59
2023-01-03T20:54:45.726Z,100980.88
2023-01-03T20:57:17.194Z,100985.72
2023-01-03T20:59:50.338Z,100975.56
2023-01-03T21:02:18.515Z,100970.16
2023-01-03T21:04:45.636Z,100967.38
2023-01-03T21:07:30.227Z,100973.84
2023-01-03T21:09:57.225Z,100969.34
2023-01-03T21:12:24.238Z,100964.13
2023-01-03T21:14:52.215Z,100958.94
2023-01-03T21:17:19.705Z,100954.41
2023-01-03T21:19:46.717Z,100945.53
2023-01-03T21:22:20.211Z,100956.22
2023-01-03T21:24:49.763Z,100952.56
2023-01-03T21:27:21.071Z,100951.03
2023-01-03T21:29:49.249Z,100943.19
2023-01-03T21:32:17.474Z,100947.78
2023-01-03T21:34:44.692Z,100950.38
2023-01-03T21:37:11.684Z,100942.41
2023-01-03T21:39:38.703Z,100952.53
2023-01-03T21:42:05.768Z,100940.03
2023-01-03T21:44:32.836Z,100940.22
2023-01-03T21:46:59.938Z,100941.28
2023-01-03T21:49:27.027Z,100944.97
2023-01-03T21:51:54.108Z,100948.50
2023-01-03T21:54:21.287Z,100944.97
2023-01-03T21:56:50.089Z,100942.84
2023-01-03T21:59:17.276Z,100945.63
2023-01-03T22:01:45.917Z,100942.47
2023-01-03T22:04:13.211Z,100940.09
2023-01-03T22:06:40.431Z,100938.56
2023-01-03T22:09:07.623Z,100945.31
2023-01-03T22:11:34.818Z,100934.06
2023-01-03T22:14:01.868Z,100931.66
2023-01-03T22:16:28.969Z,100933.03
2023-01-03T22:18:56.042Z,100919.75
2023-01-03T22:21:23.127Z,100919.28
2023-01-03T22:23:50.178Z,100908.78
2023-01-03T22:26:17.312Z,100903.81
2023-01-03T22:28:46.260Z,100899.59
2023-01-03T22:31:18.738Z,100889.00
2023-01-03T22:33:47.858Z,100893.13
2023-01-03T22:36:15.965Z,100888.81
2023-01-03T22:38:44.049Z,100887.00
2023-01-03T22:41:15.423Z,100888.72
2023-01-03T22:43:43.419Z,100884.19
2023-01-03T22:46:14.806Z,100904.09
2023-01-03T22:48:43.219Z,100916.91
2023-01-03T22:51:15.579Z,100911.59
2023-01-03T22:53:44.939Z,100915.53
2023-01-03T22:56:14.449Z,100905.44
2023-01-03T22:58:42.018Z,100896.81
2023-01-03T23:01:15.510Z,100901.31
2023-01-03T23:03:44.391Z,100907.75
2023-01-03T23:06:18.376Z,100912.28
2023-01-03T23:08:46.996Z,100914.00
2023-01-03T23:11:16.083Z,100914.00
2023-01-03T23:13:43.062Z,100907.25
2023-01-03T23:16:11.288Z,100898.34
2023-01-03T23:18:38.457Z,100890.94
2023-01-03T23:21:05.806Z,100892.75
2023-01-03T23:23:32.866Z,100897.06
2023-01-03T23:26:03.693Z,100900.81
2023-01-03T23:28:32.940Z,100900.16
2023-01-03T23:31:04.049Z,100900.91
2023-01-03T23:33:31.342Z,100896.97
2023-01-03T23:36:09.300Z,100889.56
2023-01-03T23:38:36.493Z,100887.38
2023-01-03T23:41:07.233Z,100874.69
2023-01-03T23:43:34.715Z,100872.38
2023-01-03T23:46:02.323Z,100869.03
2023-01-03T23:48:29.652Z,100863.81
2023-01-03T23:51:07.708Z,100860.00
2023-01-03T23:53:39.977Z,100854.69
2023-01-03T23:56:09.859Z,100854.22
2023-01-03T23:58:37.080Z,100843.72
